Aviation Digital Data Service (ADDS)

Output produced by TAFs form (0936 UTC 11 December 2017)
found at http://www.aviationweather.gov/adds/tafs/
 
TAF AMD KDOV 110848Z 1108/1214 26006KT 9999 BKN075 OVC100 620759 QNH3003INS 
     BECMG 1113/1114 29010G15KT 9999 FEW100 QNH2999INS 
     BECMG 1123/1124 20009KT 9999 FEW150 QNH2975INS 
     BECMG 1208/1209 16012KT 9999 BKN070 OVC150 620708 510103 QNH2954INS TX05/1208Z TN00/1111Z